Time;durP1;ratioP1;P1;durP2;ratioP2;P2;SDS_P1;SDS_P2;PMS_P1;PMS_P2;Temp;Humidity;BMP_temperature;BMP_pressure;BME280_temperature;BME280_humidity;BME280_pressure;Samples;Min_cycle;Max_cycle;Signal;HPM_P1;HPM_P2
2022/03/15 00:01:02;;;;;;;43.55;21.00;;;;;;;1.23;55.12;101704.78;3157355;28;20070;-67
2022/03/15 00:02:34;;;;;;;47.15;20.30;;;;;;;1.16;55.25;101702.91;3157573;28;20052;-66
2022/03/15 00:04:07;;;;;;;45.92;20.92;;;;;;;1.22;55.23;101711.59;3157767;28;20094;-66
2022/03/15 00:05:38;;;;;;;44.58;21.38;;;;;;;1.14;55.31;101707.97;3158475;28;20109;-67
2022/03/15 00:07:13;;;;;;;45.08;21.70;;;;;;;1.17;55.62;101705.50;3158072;28;20197;-67
2022/03/15 00:08:45;;;;;;;44.85;22.17;;;;;;;1.15;55.50;101707.13;3158111;28;20051;-66
2022/03/15 00:10:18;;;;;;;47.38;21.63;;;;;;;1.13;55.79;101704.56;3157949;28;20052;-66
2022/03/15 00:11:51;;;;;;;44.47;21.35;;;;;;;1.13;55.85;101707.13;3157634;28;20044;-67
2022/03/15 00:13:22;;;;;;;53.90;21.98;;;;;;;1.13;56.15;101708.81;3158542;28;20139;-68
2022/03/15 00:14:55;;;;;;;46.35;22.30;;;;;;;1.12;56.38;101705.41;3157768;28;20052;-68
2022/03/15 00:16:26;;;;;;;43.78;22.23;;;;;;;1.08;56.14;101706.13;3158340;28;20219;-68
2022/03/15 00:17:59;;;;;;;52.90;22.80;;;;;;;1.09;56.40;101695.03;3157629;28;20043;-68
2022/03/15 00:19:32;;;;;;;45.03;20.95;;;;;;;0.99;56.54;101681.97;3151888;28;20051;-68
2022/03/15 00:21:07;;;;;;;42.35;21.48;;;;;;;1.05;56.44;101700.94;3157430;28;20143;-68
2022/03/15 00:22:39;;;;;;;42.20;20.38;;;;;;;1.04;56.77;101703.47;3158238;28;20048;-68
2022/03/15 00:24:11;;;;;;;51.10;21.50;;;;;;;1.03;56.67;101697.44;3157424;28;20112;-68
2022/03/15 00:25:43;;;;;;;40.60;19.90;;;;;;;1.01;56.59;101690.56;3157043;28;20052;-68
2022/03/15 00:27:15;;;;;;;44.30;20.40;;;;;;;1.03;56.80;101700.00;3157972;28;20051;-68
2022/03/15 00:28:47;;;;;;;42.10;20.98;;;;;;;1.01;56.95;101701.69;3157522;28;20381;-68
2022/03/15 00:30:20;;;;;;;42.47;20.52;;;;;;;1.01;57.01;101699.13;3158410;28;20499;-68
2022/03/15 00:31:52;;;;;;;;;;;;;;;0.82;57.11;101692.66;3157855;28;20058;-68
2022/03/15 00:33:25;;;;;;;46.10;21.27;;;;;;;0.88;57.41;101699.66;3156331;28;19926;-68
2022/03/15 00:34:58;;;;;;;41.13;19.33;;;;;;;0.86;57.00;101686.81;3158202;28;20052;-68
2022/03/15 00:36:34;;;;;;;38.90;19.33;;;;;;;0.91;57.40;101700.59;3157563;28;20056;-69
2022/03/15 00:38:06;;;;;;;42.60;19.58;;;;;;;0.93;57.52;101694.66;3157357;28;20086;-68
2022/03/15 00:39:38;;;;;;;39.53;18.63;;;;;;;0.93;57.55;101689.50;3158257;28;20124;-68
2022/03/15 00:41:10;;;;;;;42.78;19.90;;;;;;;0.95;57.61;101698.09;3157516;28;20055;-68
2022/03/15 00:42:47;;;;;;;36.35;17.85;;;;;;;0.88;57.51;101684.25;3157405;28;20501;-68
2022/03/15 00:44:19;;;;;;;36.63;18.35;;;;;;;0.89;57.57;101691.16;3158491;28;20139;-68
2022/03/15 00:45:51;;;;;;;40.00;19.25;;;;;;;0.93;57.68;101699.78;3157247;28;20055;-69
2022/03/15 00:47:23;;;;;;;38.83;18.85;;;;;;;0.86;57.82;101685.94;3158108;28;20226;-68
2022/03/15 00:48:55;;;;;;;38.67;18.95;;;;;;;0.86;57.94;101691.94;3159326;28;20439;-69
2022/03/15 00:50:30;;;;;;;42.78;20.08;;;;;;;0.87;57.82;101693.66;3158059;28;20572;-68
2022/03/15 00:52:02;;;;;;;39.78;19.70;;;;;;;0.86;57.97;101693.63;3156870;28;20048;-67
2022/03/15 00:53:33;;;;;;;47.85;20.42;;;;;;;0.87;57.86;101693.66;3158094;28;20416;-67
2022/03/15 00:55:06;;;;;;;43.95;19.85;;;;;;;0.83;58.02;101686.72;3157359;28;20059;-67
2022/03/15 00:56:38;;;;;;;47.33;21.07;;;;;;;0.86;58.07;101693.63;3157750;28;20493;-68
2022/03/15 00:58:10;;;;;;;43.28;18.90;;;;;;;0.84;57.98;101688.44;3157519;28;20306;-68
2022/03/15 00:59:41;;;;;;;40.25;19.05;;;;;;;0.83;58.06;101696.13;3157263;28;20158;-67
2022/03/15 01:01:13;;;;;;;36.40;18.50;;;;;;;0.82;58.09;101695.22;3160477;28;20071;-67
2022/03/15 01:02:45;;;;;;;41.13;18.92;;;;;;;0.80;58.13;101693.44;3157505;28;20039;-67
2022/03/15 01:04:17;;;;;;;41.63;19.02;;;;;;;0.81;58.17;101695.22;3157491;28;20528;-67
2022/03/15 01:05:51;;;;;;;43.35;19.70;;;;;;;0.81;58.25;101692.66;3157097;28;20542;-67
2022/03/15 01:07:23;;;;;;;42.92;19.50;;;;;;;0.78;58.30;101688.31;3157691;28;20076;-67
2022/03/15 01:08:55;;;;;;;40.03;18.88;;;;;;;0.76;58.46;101681.38;3157726;28;20048;-67
2022/03/15 01:10:27;;;;;;;38.13;18.85;;;;;;;0.74;58.52;101675.34;3157414;28;20052;-67
2022/03/15 01:11:59;;;;;;;39.08;18.88;;;;;;;0.74;58.43;101681.38;3157325;28;20048;-67
2022/03/15 01:13:31;;;;;;;44.38;20.27;;;;;;;0.72;58.23;101674.47;3156861;28;20178;-67
2022/03/15 01:15:03;;;;;;;42.38;20.77;;;;;;;0.74;58.48;101681.38;3157280;28;20441;-68
2022/03/15 01:16:35;;;;;;;42.08;19.95;;;;;;;0.58;58.70;101656.16;3157418;28;20190;-68
2022/03/15 01:18:07;;;;;;;45.92;19.63;;;;;;;0.74;58.50;101685.59;3158059;28;20102;-68
2022/03/15 01:19:38;;;;;;;43.83;21.23;;;;;;;0.73;58.52;101679.63;3157166;28;20077;-68
2022/03/15 01:21:13;;;;;;;44.50;21.42;;;;;;;0.71;58.55;101676.16;3157769;28;20664;-67
2022/03/15 01:22:45;;;;;;;47.22;21.90;;;;;;;0.69;58.67;101672.69;3156984;28;20056;-68
2022/03/15 01:24:17;;;;;;;48.88;22.45;;;;;;;0.68;58.74;101674.38;3157168;28;20113;-68
2022/03/15 01:25:49;;;;;;;41.03;19.70;;;;;;;0.53;58.69;101642.34;3155132;28;20441;-68
2022/03/15 01:27:21;;;;;;;40.85;21.05;;;;;;;0.66;58.76;101663.22;3157204;28;20056;-68
2022/03/15 01:28:53;;;;;;;37.72;19.90;;;;;;;0.67;58.88;101659.81;3157002;28;20441;-68
2022/03/15 01:30:24;;;;;;;40.00;19.90;;;;;;;0.66;58.78;101657.22;3156330;28;20126;-68
2022/03/15 01:31:55;;;;;;;44.13;20.83;;;;;;;0.66;58.86;101658.09;3157198;28;20052;-67
2022/03/15 01:33:27;;;;;;;41.40;20.42;;;;;;;0.60;58.76;101652.81;3156826;28;20113;-68
2022/03/15 01:34:59;;;;;;;48.78;21.13;;;;;;;0.64;59.04;101658.88;3157279;28;20487;-68
2022/03/15 01:36:32;;;;;;;42.28;20.65;;;;;;;0.66;58.89;101654.66;3157206;28;20096;-67
2022/03/15 01:38:05;;;;;;;41.08;20.02;;;;;;;0.62;58.87;101661.41;3156842;28;20051;-67
2022/03/15 01:39:37;;;;;;;38.58;19.73;;;;;;;0.60;59.05;101649.38;3159913;28;20067;-67
2022/03/15 01:41:08;;;;;;;38.83;19.70;;;;;;;0.62;58.87;101656.28;3160822;28;20473;-67
2022/03/15 01:42:41;;;;;;;38.38;19.63;;;;;;;0.60;59.06;101652.81;3159719;28;20052;-67
2022/03/15 01:44:15;;;;;;;40.30;19.42;;;;;;;0.61;59.06;101653.66;3160204;28;20058;-66
2022/03/15 01:45:47;;;;;;;40.28;19.80;;;;;;;0.59;59.16;101653.66;3159693;28;20044;-66
2022/03/15 01:47:19;;;;;;;42.85;20.27;;;;;;;0.59;59.07;101651.09;3159313;28;20105;-67
2022/03/15 01:48:51;;;;;;;43.78;20.38;;;;;;;0.55;59.33;101646.69;3154086;28;20114;-67
2022/03/15 01:50:23;;;;;;;40.00;20.42;;;;;;;0.43;59.02;101634.44;3156066;28;20051;-67
2022/03/15 01:51:56;;;;;;;39.65;19.73;;;;;;;0.58;59.12;101653.59;3165413;28;20517;-67
2022/03/15 01:53:28;;;;;;;41.50;20.38;;;;;;;0.56;59.08;101651.00;3159426;28;20133;-66
2022/03/15 01:55:00;;;;;;;40.60;19.60;;;;;;;0.55;59.26;101656.09;3164486;28;20457;-67
2022/03/15 01:56:33;;;;;;;37.78;18.77;;;;;;;0.56;59.30;101650.13;3159302;28;20913;-67
2022/03/15 01:58:05;;;;;;;40.72;19.73;;;;;;;0.54;59.16;101646.66;3160034;28;20059;-67
2022/03/15 01:59:38;;;;;;;40.83;19.50;;;;;;;0.55;59.31;101650.94;3159295;28;20048;-67
2022/03/15 02:01:09;;;;;;;40.30;19.27;;;;;;;0.52;59.31;101646.63;3159376;28;20048;-67
2022/03/15 02:02:42;;;;;;;38.15;19.38;;;;;;;0.52;59.10;101649.19;3158968;28;20044;-67
2022/03/15 02:04:15;;;;;;;40.80;19.58;;;;;;;0.51;59.20;101644.88;3158620;28;20475;-67
2022/03/15 02:05:47;;;;;;;39.67;19.27;;;;;;;0.49;59.32;101643.97;3159287;28;20052;-66
2022/03/15 02:07:20;;;;;;;37.38;18.50;;;;;;;0.49;59.35;101649.09;3159126;28;20056;-66
2022/03/15 02:08:52;;;;;;;37.50;18.58;;;;;;;0.27;59.37;101621.16;3159871;28;20044;-66
2022/03/15 02:10:24;;;;;;;36.28;18.77;;;;;;;0.47;59.38;101652.44;3159314;28;20417;-66
2022/03/15 02:11:55;;;;;;;42.85;19.45;;;;;;;0.38;59.35;101645.38;3159364;28;20078;-67
2022/03/15 02:13:28;;;;;;;39.10;19.23;;;;;;;0.45;59.58;101655.84;3159099;28;20044;-66
2022/03/15 02:15:02;;;;;;;44.75;21.33;;;;;;;0.45;59.40;101657.56;3159655;28;20055;-67
2022/03/15 02:16:35;;;;;;;36.55;18.33;;;;;;;0.39;59.29;101649.69;3152761;28;20085;-67
2022/03/15 02:18:07;;;;;;;40.00;19.92;;;;;;;0.41;59.34;101655.72;3152431;28;20052;-67
2022/03/15 02:19:39;;;;;;;40.25;19.88;;;;;;;0.32;59.47;101643.53;3159396;28;20048;-66
2022/03/15 02:21:13;;;;;;;44.38;19.75;;;;;;;0.40;59.48;101665.09;3159801;28;20052;-66
2022/03/15 02:22:45;;;;;;;41.30;19.63;;;;;;;0.36;59.52;101658.19;3158886;28;20150;-67
2022/03/15 02:24:17;;;;;;;38.65;19.98;;;;;;;0.39;59.54;101659.97;3158935;28;20059;-66
2022/03/15 02:25:49;;;;;;;40.72;20.52;;;;;;;0.37;59.56;101664.16;3159686;28;20048;-66
2022/03/15 02:27:23;;;;;;;38.28;19.20;;;;;;;0.29;59.72;101655.41;3159185;28;20105;-67
2022/03/15 02:28:56;;;;;;;46.15;20.83;;;;;;;0.31;59.44;101656.31;3160732;28;20135;-67
2022/03/15 02:30:30;;;;;;;39.10;20.15;;;;;;;0.28;59.73;101669.03;3152603;28;20105;-67
2022/03/15 02:32:03;;;;;;;42.22;20.20;;;;;;;0.30;59.74;101678.50;3158248;28;20067;-67
2022/03/15 02:33:34;;;;;;;38.50;20.20;;;;;;;0.22;59.89;101664.63;3158941;28;20052;-68
2022/03/15 02:35:08;;;;;;;42.25;21.73;;;;;;;0.28;59.89;101682.72;3159352;28;20048;-67
2022/03/15 02:36:41;;;;;;;43.40;20.67;;;;;;;0.14;59.74;101656.72;3158888;28;20056;-67
2022/03/15 02:38:13;;;;;;;40.10;19.45;;;;;;;0.25;59.95;101695.44;3157267;28;20052;-68
2022/03/15 02:39:45;;;;;;;41.63;19.98;;;;;;;0.21;59.98;101685.97;3163301;28;20495;-67
2022/03/15 02:41:17;;;;;;;43.17;20.15;;;;;;;0.25;59.96;101697.16;3158764;28;20043;-67
2022/03/15 02:42:48;;;;;;;43.88;20.55;;;;;;;0.20;59.85;101689.31;3158807;28;20097;-66
2022/03/15 02:44:23;;;;;;;46.05;20.52;;;;;;;0.22;59.89;101701.34;3159698;28;20048;-66
2022/03/15 02:45:55;;;;;;;45.83;21.75;;;;;;;0.07;59.77;101675.31;3158777;28;20048;-66
2022/03/15 02:47:27;;;;;;;44.70;20.27;;;;;;;0.18;59.97;101697.00;3158498;28;20125;-66
2022/03/15 02:48:59;;;;;;;41.95;19.70;;;;;;;0.15;60.17;101696.03;3162034;28;20109;-66
2022/03/15 02:50:30;;;;;;;42.58;20.30;;;;;;;0.06;60.24;101672.69;3158869;28;20051;-67
2022/03/15 02:52:04;;;;;;;45.38;20.75;;;;;;;0.15;60.26;101691.78;3158699;28;20048;-66
2022/03/15 02:53:37;;;;;;;47.13;21.60;;;;;;;0.13;60.30;101693.41;3158771;28;20051;-66
2022/03/15 02:55:09;;;;;;;42.17;21.45;;;;;;;0.08;60.33;101691.56;3158636;28;20047;-66
2022/03/15 02:56:42;;;;;;;39.45;20.10;;;;;;;0.10;60.27;101695.91;3158642;28;20059;-67
2022/03/15 02:58:14;;;;;;;43.28;19.98;;;;;;;0.07;60.56;101690.69;3159054;28;20067;-66
2022/03/15 02:59:45;;;;;;;40.92;19.80;;;;;;;0.01;60.40;101679.41;3158836;28;20151;-67
2022/03/15 03:01:19;;;;;;;42.00;20.40;;;;;;;0.04;60.50;101682.06;3156656;28;20048;-67
2022/03/15 03:02:51;;;;;;;40.53;20.15;;;;;;;0.05;60.56;101691.47;3155942;28;20120;-67
2022/03/15 03:04:23;;;;;;;40.53;19.98;;;;;;;-0.05;60.48;101667.31;3158547;28;20525;-67
2022/03/15 03:05:55;;;;;;;47.90;19.58;;;;;;;0.05;60.63;101681.22;3164831;28;20104;-66
2022/03/15 03:07:29;;;;;;;39.72;19.55;;;;;;;0.06;60.69;101680.38;3158601;28;20055;-67
2022/03/15 03:09:01;;;;;;;39.20;19.30;;;;;;;0.02;60.59;101676.88;3158914;28;20047;-67
2022/03/15 03:10:32;;;;;;;37.63;19.27;;;;;;;-0.03;60.64;101668.19;3158410;28;20121;-66
2022/03/15 03:12:04;;;;;;;37.53;17.95;;;;;;;-0.07;60.61;101669.81;3164740;28;20502;-67
2022/03/15 03:13:37;;;;;;;39.35;19.10;;;;;;;-0.05;60.76;101675.84;3159092;28;20052;-66
2022/03/15 03:15:11;;;;;;;39.40;19.00;;;;;;;-0.15;60.71;101655.91;3158994;28;20097;-67
2022/03/15 03:16:43;;;;;;;38.35;19.55;;;;;;;-0.03;60.60;101663.06;3158281;28;20119;-67
2022/03/15 03:18:15;;;;;;;37.13;19.02;;;;;;;-0.02;60.67;101665.69;3158551;28;20429;-66
2022/03/15 03:19:46;;;;;;;38.20;18.80;;;;;;;-0.02;60.86;101662.25;3159205;28;20653;-66
2022/03/15 03:21:18;;;;;;;39.40;18.90;;;;;;;-0.03;60.86;101663.06;3158381;28;20509;-67
2022/03/15 03:22:53;;;;;;;38.08;19.13;;;;;;;-0.03;60.77;101657.94;3153738;28;20048;-67
2022/03/15 03:24:25;;;;;;;38.15;17.80;;;;;;;-0.07;61.03;101656.13;3158051;28;20491;-66
2022/03/15 03:25:57;;;;;;;37.08;18.67;;;;;;;-0.08;60.98;101647.59;3158097;28;20048;-67
2022/03/15 03:27:28;;;;;;;38.88;19.23;;;;;;;-0.09;60.91;101647.53;3158717;28;20108;-66
2022/03/15 03:29:00;;;;;;;42.75;19.65;;;;;;;-0.13;60.94;101643.16;3158299;28;20139;-67
2022/03/15 03:30:33;;;;;;;39.10;18.83;;;;;;;-0.12;61.01;101644.88;3157957;28;20105;-67
2022/03/15 03:32:05;;;;;;;39.25;19.15;;;;;;;-0.09;61.10;101647.53;3159103;28;20585;-67
2022/03/15 03:33:38;;;;;;;35.78;17.75;;;;;;;-0.12;61.12;101642.31;3158203;28;20052;-67
2022/03/15 03:35:10;;;;;;;40.15;18.55;;;;;;;-0.11;61.16;101650.06;3158214;28;20573;-67
2022/03/15 03:36:41;;;;;;;40.15;19.17;;;;;;;-0.11;61.25;101639.81;3158683;28;20113;-67
2022/03/15 03:38:14;;;;;;;41.47;18.80;;;;;;;-0.12;61.09;101635.53;3157850;28;20431;-67
2022/03/15 03:39:47;;;;;;;41.08;19.52;;;;;;;-0.14;61.18;101644.00;3159848;28;20422;-67
2022/03/15 03:41:18;;;;;;;38.88;19.40;;;;;;;-0.17;61.21;101638.78;3158015;28;20083;-67
2022/03/15 03:42:51;;;;;;;42.83;18.52;;;;;;;-0.16;61.30;101635.41;3158549;28;20059;-67
2022/03/15 03:44:21;;;;;;;36.47;18.63;;;;;;;-0.21;61.44;101634.38;3157726;28;20134;-67
2022/03/15 03:45:53;;;;;;;40.72;18.35;;;;;;;-0.20;61.58;101641.25;3157153;28;20051;-67
2022/03/15 03:47:25;;;;;;;42.33;19.48;;;;;;;-0.20;61.42;101637.00;3158034;28;20048;-67
2022/03/15 03:48:57;;;;;;;36.15;17.90;;;;;;;-0.20;61.29;101637.00;3158756;28;20089;-67
2022/03/15 03:50:29;;;;;;;37.97;17.73;;;;;;;-0.24;61.21;101632.59;3157698;28;20052;-68
2022/03/15 03:52:01;;;;;;;33.58;17.08;;;;;;;-0.36;61.35;101611.78;3157687;28;20114;-67
2022/03/15 03:53:35;;;;;;;34.90;17.60;;;;;;;-0.19;61.07;101633.59;3164342;28;20133;-67
2022/03/15 03:55:07;;;;;;;;;;;;;;;-0.37;61.00;101635.66;3156528;28;20461;-67
2022/03/15 03:56:39;;;;;;;32.63;16.08;;;;;;;-0.32;61.42;101634.97;3158491;28;20320;-67
2022/03/15 03:58:11;;;;;;;31.40;15.77;;;;;;;-0.40;61.34;101610.84;3157699;28;20105;-67
2022/03/15 03:59:43;;;;;;;37.17;16.70;;;;;;;-0.27;61.16;101628.28;3157623;28;20450;-67
2022/03/15 04:01:15;;;;;;;39.72;17.33;;;;;;;-0.34;61.12;101616.13;3157398;28;20044;-67
2022/03/15 04:02:47;;;;;;;40.60;17.13;;;;;;;-0.26;61.03;101624.91;3159285;28;20040;-67
2022/03/15 04:04:18;;;;;;;41.95;17.95;;;;;;;-0.22;61.04;101627.53;3158378;28;20051;-67
2022/03/15 04:05:51;;;;;;;37.42;17.65;;;;;;;-0.23;61.05;101629.25;3158149;28;20074;-67
2022/03/15 04:07:22;;;;;;;44.22;18.58;;;;;;;-0.27;61.01;101614.59;3158048;28;20101;-67
2022/03/15 04:08:56;;;;;;;41.63;17.85;;;;;;;-0.26;60.90;101619.78;3158349;28;20051;-67
2022/03/15 04:10:30;;;;;;;;;;;;;;;-0.41;61.16;101623.56;3158367;28;20090;-68
2022/03/15 04:12:03;;;;;;;36.53;17.20;;;;;;;-0.38;61.30;101627.13;3157604;28;19920;-67
2022/03/15 04:13:41;;;;;;;34.15;16.15;;;;;;;-0.35;61.20;101622.09;3153130;28;20128;-67
2022/03/15 04:15:13;;;;;;;37.70;17.67;;;;;;;-0.31;61.12;101623.88;3157984;28;20046;-67
2022/03/15 04:16:45;;;;;;;37.15;17.88;;;;;;;-0.27;61.18;101627.41;3157729;28;20589;-67
2022/03/15 04:18:17;;;;;;;38.60;18.13;;;;;;;-0.27;61.34;101627.41;3157696;28;20495;-67
2022/03/15 04:19:49;;;;;;;38.83;17.67;;;;;;;-0.27;61.24;101628.28;3160219;28;20563;-67
2022/03/15 04:21:24;;;;;;;38.38;17.30;;;;;;;-0.46;61.24;101592.75;3160982;28;20055;-67
2022/03/15 04:22:56;;;;;;;37.15;18.67;;;;;;;-0.25;61.27;101618.09;3158027;28;20154;-67
2022/03/15 04:24:30;;;;;;;42.38;20.13;;;;;;;-0.29;61.37;101609.44;3156377;28;20116;-67
2022/03/15 04:26:02;;;;;;;41.78;18.63;;;;;;;-0.30;61.24;101609.41;3157474;28;20091;-67
2022/03/15 04:27:34;;;;;;;43.85;18.52;;;;;;;-0.25;61.24;101618.94;3158078;28;20287;-67
2022/03/15 04:29:06;;;;;;;47.63;19.65;;;;;;;-0.27;61.45;101627.41;3157292;28;20044;-67
2022/03/15 04:30:38;;;;;;;46.53;18.75;;;;;;;-0.24;61.38;101630.94;3161415;28;20471;-67
2022/03/15 04:32:10;;;;;;;40.85;18.52;;;;;;;-0.27;61.32;101629.97;3157953;28;20112;-67
2022/03/15 04:33:42;;;;;;;40.88;18.77;;;;;;;-0.53;61.15;101586.59;3157634;28;20052;-68
2022/03/15 04:35:15;;;;;;;51.25;24.45;;;;;;;-0.26;61.46;101637.69;3157468;28;20055;-67
2022/03/15 04:36:47;;;;;;;46.42;21.83;;;;;;;-0.29;61.20;101627.38;3158357;28;20079;-66
2022/03/15 04:38:18;;;;;;;48.42;19.70;;;;;;;-0.25;61.38;101633.44;3156383;28;20047;-67
2022/03/15 04:39:51;;;;;;;47.33;19.98;;;;;;;-0.32;61.34;101614.50;3157593;28;20104;-67
2022/03/15 04:41:23;;;;;;;39.67;18.25;;;;;;;-0.22;61.39;101624.97;3157521;28;20100;-66
2022/03/15 04:42:55;;;;;;;40.38;19.35;;;;;;;-0.22;61.49;101624.97;3152176;28;20052;-67
2022/03/15 04:44:27;;;;;;;47.40;20.52;;;;;;;-0.22;61.34;101627.53;3155700;28;20075;-66
2022/03/15 04:45:59;;;;;;;48.47;21.15;;;;;;;-0.20;61.48;101624.19;3157284;28;20653;-66
2022/03/15 04:47:31;;;;;;;43.85;19.70;;;;;;;-0.20;61.25;101621.66;3157099;28;20578;-66
2022/03/15 04:49:03;;;;;;;45.83;21.75;;;;;;;-0.17;61.46;101624.28;3158092;28;20051;-66
2022/03/15 04:50:35;;;;;;;50.92;21.50;;;;;;;-0.22;61.52;101613.03;3157301;28;20070;-66
2022/03/15 04:52:07;;;;;;;43.25;20.52;;;;;;;-0.16;61.25;101628.56;3156980;28;20052;-66
2022/03/15 04:53:39;;;;;;;49.87;22.80;;;;;;;-0.14;61.38;101629.50;3157561;28;20048;-66
2022/03/15 04:55:13;;;;;;;49.00;20.40;;;;;;;-0.15;61.39;101619.19;3157088;28;20052;-66
2022/03/15 04:56:44;;;;;;;50.17;22.75;;;;;;;-0.12;61.37;101621.84;3157776;28;20044;-66
2022/03/15 04:58:16;;;;;;;46.15;21.10;;;;;;;-0.10;61.30;101628.75;3157350;28;20052;-66
2022/03/15 04:59:48;;;;;;;49.67;21.33;;;;;;;-0.16;61.42;101614.91;3157676;28;20040;-66
2022/03/15 05:01:20;;;;;;;46.03;21.48;;;;;;;-0.08;61.21;101629.66;3156909;28;20047;-67
2022/03/15 05:02:52;;;;;;;51.80;20.80;;;;;;;-0.08;61.26;101628.81;3159535;28;20131;-67
2022/03/15 05:04:24;;;;;;;52.08;20.48;;;;;;;-0.04;61.17;101635.72;3157421;28;20040;-66
2022/03/15 05:05:56;;;;;;;49.80;21.20;;;;;;;0.01;61.02;101636.72;3157427;28;20106;-67
2022/03/15 05:07:28;;;;;;;47.88;21.95;;;;;;;0.02;60.92;101628.22;3157561;28;20055;-66
2022/03/15 05:08:59;;;;;;;47.17;22.58;;;;;;;0.04;61.08;101639.38;3157132;28;20048;-66
2022/03/15 05:12:22;;;;;;;45.58;22.25;;;;;;;0.05;60.78;101630.84;3156672;28;20131;-67
2022/03/15 05:13:54;;;;;;;47.42;21.70;;;;;;;0.09;61.10;101635.25;3157744;28;20079;-67
2022/03/15 05:15:26;;;;;;;44.30;20.73;;;;;;;0.14;60.90;101636.22;3157031;28;20675;-67
2022/03/15 05:16:58;;;;;;;47.33;20.70;;;;;;;0.10;60.72;101619.03;3155541;28;20060;-66
2022/03/15 05:18:29;;;;;;;44.33;21.35;;;;;;;0.20;61.00;101641.50;3161797;28;20044;-67
2022/03/15 05:20:02;;;;;;;51.20;23.80;;;;;;;0.25;60.92;101645.91;3150940;28;20079;-67
2022/03/15 05:21:35;;;;;;;50.42;23.50;;;;;;;0.26;61.15;101645.06;3156580;28;20056;-67
2022/03/15 05:23:05;;;;;;;50.58;24.67;;;;;;;0.33;60.85;101652.97;3157116;28;20167;-67
2022/03/15 05:24:38;;;;;;;60.35;24.58;;;;;;;0.37;60.76;101657.34;3155886;28;20063;-67
2022/03/15 05:26:12;;;;;;;51.40;23.77;;;;;;;0.40;60.76;101657.41;3148923;28;20469;-66
2022/03/15 05:27:44;;;;;;;51.47;23.13;;;;;;;0.52;60.51;101661.13;3148180;28;20552;-66
2022/03/15 05:29:16;;;;;;;50.58;22.17;;;;;;;0.57;60.44;101663.00;3152803;28;20055;-67
2022/03/15 05:30:47;;;;;;;53.50;23.23;;;;;;;0.63;60.45;101659.72;3148221;28;20047;-67
2022/03/15 05:32:19;;;;;;;53.33;23.35;;;;;;;0.67;60.17;101662.38;3145426;28;20113;-67
2022/03/15 05:33:51;;;;;;;48.47;21.58;;;;;;;0.75;60.06;101666.84;3147419;28;20103;-66
2022/03/15 05:35:23;;;;;;;48.88;20.45;;;;;;;0.86;59.76;101683.38;3146799;28;20585;-67
2022/03/15 05:36:55;;;;;;;38.33;18.67;;;;;;;0.95;59.78;101686.16;3148130;28;20109;-66
2022/03/15 05:38:27;;;;;;;41.63;19.20;;;;;;;1.03;59.39;101684.63;3153468;28;20145;-66
2022/03/15 05:40:00;;;;;;;45.38;18.92;;;;;;;1.10;59.34;101675.41;3145621;28;20505;-67
2022/03/15 05:41:35;;;;;;;35.67;15.85;;;;;;;1.17;59.03;101676.41;3148583;28;20457;-67
2022/03/15 05:43:07;;;;;;;41.47;17.30;;;;;;;1.23;58.90;101673.97;3146575;28;20421;-66
2022/03/15 05:44:39;;;;;;;29.60;15.00;;;;;;;1.30;58.70;101668.13;3148671;28;20060;-65
2022/03/15 05:46:11;;;;;;;30.33;14.35;;;;;;;1.36;58.38;101666.59;3147898;28;20174;-65
2022/03/15 05:47:44;;;;;;;33.42;14.52;;;;;;;1.45;58.28;101670.19;3149246;28;20433;-65
2022/03/15 05:49:15;;;;;;;39.08;15.02;;;;;;;1.53;58.16;101664.38;3147212;28;20048;-66
2022/03/15 05:50:48;;;;;;;32.38;15.63;;;;;;;1.61;57.88;101673.97;3146465;28;20505;-66
2022/03/15 05:52:20;;;;;;;32.58;15.90;;;;;;;1.67;57.36;101663.81;3147629;28;20048;-66
2022/03/15 05:53:52;;;;;;;30.10;14.13;;;;;;;1.75;57.44;101664.84;3149080;28;20055;-66
2022/03/15 05:55:26;;;;;;;35.55;14.45;;;;;;;1.82;57.15;101667.56;3147874;28;20052;-65
2022/03/15 05:56:59;;;;;;;30.98;13.30;;;;;;;1.88;56.77;101664.25;3145123;28;20113;-66
2022/03/15 05:58:31;;;;;;;;;;;;;;;1.80;57.00;101673.50;3153960;28;20098;-65
2022/03/15 06:00:05;;;;;;;34.63;13.23;;;;;;;1.98;56.83;101671.34;3148418;28;19924;-66
2022/03/15 06:01:37;;;;;;;27.38;12.45;;;;;;;2.10;56.36;101670.72;3146370;28;20071;-66
2022/03/15 06:03:10;;;;;;;42.08;13.85;;;;;;;2.24;56.17;101673.53;3146797;28;20795;-65
2022/03/15 06:04:42;;;;;;;32.17;12.75;;;;;;;2.32;55.92;101674.53;3149434;28;20090;-64
2022/03/15 06:06:14;;;;;;;30.13;12.82;;;;;;;2.43;55.45;101678.19;3149109;28;20135;-65
2022/03/15 06:07:47;;;;;;;23.25;11.95;;;;;;;2.55;55.18;101676.69;3148330;28;20062;-65
2022/03/15 06:09:19;;;;;;;24.35;12.30;;;;;;;2.61;54.99;101676.78;3143381;28;20121;-66
2022/03/15 06:10:51;;;;;;;25.52;12.23;;;;;;;2.75;54.79;101672.72;3144652;28;20065;-64
2022/03/15 06:12:25;;;;;;;31.75;12.68;;;;;;;2.90;54.51;101659.25;3147740;28;20048;-66
2022/03/15 06:13:57;;;;;;;30.52;14.13;;;;;;;3.26;54.43;101660.66;3147431;28;20059;-65
2022/03/15 06:15:29;;;;;;;37.33;14.90;;;;;;;4.18;53.91;101667.00;3148859;28;20052;-67
2022/03/15 06:17:02;;;;;;;32.28;13.65;;;;;;;5.47;52.46;101666.31;3146510;28;20062;-66
2022/03/15 06:18:34;;;;;;;25.75;13.18;;;;;;;6.87;50.40;101653.84;3147857;28;20056;-65
2022/03/15 06:20:07;;;;;;;32.93;12.83;;;;;;;8.49;47.91;101667.97;3146834;28;20121;-67
2022/03/15 06:21:40;;;;;;;25.85;11.73;;;;;;;9.93;45.47;101653.59;3147161;28;20320;-66
2022/03/15 06:23:13;;;;;;;28.08;13.05;;;;;;;11.25;43.29;101638.53;3147295;28;20060;-67
2022/03/15 06:24:45;;;;;;;23.98;12.68;;;;;;;12.46;40.59;101643.84;3147749;28;20502;-68
2022/03/15 06:26:18;;;;;;;22.77;13.20;;;;;;;13.62;38.26;101640.00;3155110;28;20054;-67
2022/03/15 06:27:51;;;;;;;;;;;;;;;14.55;38.58;101636.31;3146116;28;20113;-68
2022/03/15 06:29:24;;;;;;;20.00;11.50;;;;;;;15.58;35.03;101638.88;3149939;28;19978;-75
2022/03/15 06:30:57;;;;;;;27.75;12.43;;;;;;;16.52;33.20;101640.56;3149399;28;20110;-67
2022/03/15 06:32:29;;;;;;;23.67;12.02;;;;;;;17.40;31.54;101629.84;3150019;28;20082;-67
2022/03/15 06:34:03;;;;;;;23.98;11.75;;;;;;;18.28;30.08;101631.94;3149610;28;20052;-67
2022/03/15 06:35:35;;;;;;;21.80;12.38;;;;;;;18.93;28.71;101595.31;3152453;28;20143;-67
2022/03/15 06:37:07;;;;;;;25.52;12.48;;;;;;;19.80;27.43;101629.47;3148840;28;20054;-67
2022/03/15 06:38:40;;;;;;;22.83;12.27;;;;;;;20.36;26.41;101638.69;3149967;28;20054;-68
2022/03/15 06:40:14;;;;;;;28.30;13.07;;;;;;;20.56;25.85;101588.16;3149777;28;20121;-69
2022/03/15 06:41:46;;;;;;;20.85;13.25;;;;;;;21.17;25.03;101623.34;3148801;28;20121;-71
2022/03/15 06:43:20;;;;;;;24.80;14.18;;;;;;;21.17;24.31;101625.13;3149079;28;20058;-70
2022/03/15 06:44:52;;;;;;;22.75;12.02;;;;;;;21.21;23.66;101618.69;3149446;28;20056;-71
2022/03/15 06:46:25;;;;;;;18.20;11.40;;;;;;;21.28;23.53;101620.03;3150423;28;20056;-73
2022/03/15 06:47:57;;;;;;;28.65;11.77;;;;;;;21.58;23.10;101619.97;3149858;28;20052;-75
2022/03/15 06:49:29;;;;;;;25.00;13.10;;;;;;;21.98;22.46;101622.78;3151376;28;20112;-74
2022/03/15 06:51:02;;;;;;;18.95;11.32;;;;;;;22.33;22.38;101590.44;3148339;28;20048;-75
2022/03/15 06:52:34;;;;;;;31.58;16.08;;;;;;;22.81;21.93;101635.94;3153708;28;20060;-76
2022/03/15 06:54:07;;;;;;;17.25;11.25;;;;;;;22.91;21.47;101637.84;3148561;28;20533;-75
2022/03/15 06:55:42;;;;;;;18.65;11.20;;;;;;;22.91;21.20;101642.31;3144434;28;20058;-73
2022/03/15 06:57:14;;;;;;;16.10;10.50;;;;;;;22.90;20.87;101637.97;3150031;28;20054;-75
2022/03/15 06:58:48;;;;;;;21.10;11.73;;;;;;;23.10;20.81;101639.25;3150106;28;20088;-74
2022/03/15 07:00:20;;;;;;;20.65;11.02;;;;;;;23.35;20.56;101631.31;3148100;28;20089;-74
2022/03/15 07:01:52;;;;;;;18.02;13.13;;;;;;;23.60;20.25;101630.44;3146326;28;21055;-75
2022/03/15 07:03:24;;;;;;;19.63;10.73;;;;;;;24.01;19.56;101637.25;3149089;28;20090;-75
2022/03/15 07:04:56;;;;;;;14.70;11.07;;;;;;;24.26;19.25;101624.84;3149193;28;20048;-75